createdAt,value
2023-01-06T00:01:27.154Z,3.00
2023-01-06T00:03:59.113Z,3.10
2023-01-06T00:06:27.979Z,3.00
2023-01-06T00:08:56.603Z,3.00
2023-01-06T00:11:24.194Z,3.00
2023-01-06T00:13:51.954Z,3.00
2023-01-06T00:16:20.715Z,3.10
2023-01-06T00:18:48.422Z,3.00
2023-01-06T00:21:16.113Z,3.00
2023-01-06T00:23:43.511Z,2.90
2023-01-06T00:26:11.321Z,2.80
2023-01-06T00:28:38.813Z,2.80
2023-01-06T00:31:10.900Z,2.90
2023-01-06T00:33:38.521Z,2.90
2023-01-06T00:36:07.018Z,3.00
2023-01-06T00:38:36.417Z,3.00
2023-01-06T00:41:28.285Z,2.90
2023-01-06T00:43:59.232Z,2.90
2023-01-06T00:46:29.520Z,3.00
2023-01-06T00:49:07.490Z,3.00
2023-01-06T00:51:37.442Z,3.00
2023-01-06T00:54:05.386Z,3.00
2023-01-06T00:56:32.731Z,2.90
2023-01-06T00:59:02.345Z,2.90
2023-01-06T01:01:29.385Z,2.80
2023-01-06T01:03:56.845Z,2.80
2023-01-06T01:06:23.858Z,2.90
2023-01-06T01:08:55.559Z,2.90
2023-01-06T01:11:41.737Z,2.90
2023-01-06T01:14:10.023Z,2.90
2023-01-06T01:16:37.052Z,2.90
2023-01-06T01:19:04.819Z,2.90
2023-01-06T01:21:31.777Z,2.90
2023-01-06T01:23:59.025Z,2.90
2023-01-06T01:26:25.993Z,2.90
2023-01-06T01:28:53.265Z,2.90
2023-01-06T01:31:20.665Z,2.90
2023-01-06T01:33:47.949Z,2.90
2023-01-06T01:36:17.684Z,2.80
2023-01-06T01:38:45.166Z,2.90
2023-01-06T01:41:17.821Z,2.80
2023-01-06T01:43:50.842Z,2.80
2023-01-06T01:46:40.043Z,2.80
2023-01-06T01:49:18.839Z,2.80
2023-01-06T01:51:48.143Z,2.80
2023-01-06T01:54:20.992Z,2.70
2023-01-06T01:56:54.104Z,2.70
2023-01-06T01:59:25.455Z,2.60
2023-01-06T02:01:52.803Z,2.60
2023-01-06T02:04:23.092Z,2.70
2023-01-06T02:06:50.972Z,2.70
2023-01-06T02:09:35.941Z,2.70
2023-01-06T02:12:03.826Z,2.70
2023-01-06T02:14:31.146Z,2.70
2023-01-06T02:17:16.889Z,2.70
2023-01-06T02:20:21.431Z,2.70
2023-01-06T02:23:18.964Z,2.70
2023-01-06T02:25:49.271Z,2.60
2023-01-06T02:28:41.285Z,2.60
2023-01-06T02:31:46.556Z,2.60
2023-01-06T02:34:39.936Z,2.50
2023-01-06T02:37:15.353Z,2.40
2023-01-06T02:39:58.295Z,2.50
2023-01-06T02:42:25.458Z,2.60
2023-01-06T02:45:29.580Z,2.60
2023-01-06T02:48:13.188Z,2.60
2023-01-06T02:50:49.749Z,2.50
2023-01-06T02:53:27.711Z,2.50
2023-01-06T02:55:57.238Z,2.40
2023-01-06T02:58:34.934Z,2.30
2023-01-06T03:01:08.561Z,2.30
2023-01-06T03:03:39.251Z,2.30
2023-01-06T03:06:10.645Z,2.20
2023-01-06T03:08:39.982Z,2.30
2023-01-06T03:11:07.160Z,2.30
2023-01-06T03:13:58.335Z,2.20
2023-01-06T03:16:25.691Z,2.10
2023-01-06T03:18:54.539Z,2.10
2023-01-06T03:21:26.005Z,2.00
2023-01-06T03:23:53.585Z,2.00
2023-01-06T03:26:20.713Z,2.10
2023-01-06T03:28:47.937Z,2.10
2023-01-06T03:31:22.849Z,2.10
2023-01-06T03:33:50.054Z,2.20
2023-01-06T03:36:26.275Z,2.20
2023-01-06T03:39:18.559Z,2.20
2023-01-06T03:42:21.295Z,2.20
2023-01-06T03:45:33.347Z,2.30
2023-01-06T03:48:16.663Z,2.30
2023-01-06T03:50:50.765Z,2.30
2023-01-06T03:53:58.396Z,2.30
2023-01-06T03:56:44.473Z,2.20
2023-01-06T03:59:19.857Z,2.20
2023-01-06T04:01:48.492Z,2.30
2023-01-06T04:04:17.701Z,2.30
2023-01-06T04:06:45.339Z,2.30
2023-01-06T04:09:12.364Z,2.20
2023-01-06T04:11:58.358Z,2.20
2023-01-06T04:14:25.284Z,2.30
2023-01-06T04:16:52.499Z,2.20
2023-01-06T04:19:19.515Z,2.20
2023-01-06T04:21:46.730Z,2.20
2023-01-06T04:24:13.777Z,2.20
2023-01-06T04:26:40.993Z,2.20
2023-01-06T04:29:08.028Z,2.20
2023-01-06T04:31:35.730Z,2.20
2023-01-06T04:34:02.885Z,2.40
2023-01-06T04:36:31.362Z,2.40
2023-01-06T04:38:58.357Z,2.30
2023-01-06T04:41:25.599Z,2.30
2023-01-06T04:43:52.549Z,2.40
2023-01-06T04:46:19.813Z,2.40
2023-01-06T04:48:46.791Z,2.40
2023-01-06T04:51:14.041Z,2.40
2023-01-06T04:53:42.422Z,2.40
2023-01-06T04:56:12.630Z,2.40
2023-01-06T04:58:39.898Z,2.40
2023-01-06T05:01:10.002Z,2.40
2023-01-06T05:03:37.843Z,2.40
2023-01-06T05:06:10.987Z,2.30
2023-01-06T05:08:39.946Z,2.30
2023-01-06T05:11:27.735Z,2.20
2023-01-06T05:13:54.776Z,2.30
2023-01-06T05:16:28.015Z,2.20
2023-01-06T05:18:56.081Z,2.20
2023-01-06T05:21:25.220Z,2.20
2023-01-06T05:23:52.983Z,2.20
2023-01-06T05:26:22.992Z,2.20
2023-01-06T05:28:50.500Z,2.20
2023-01-06T05:31:17.978Z,2.20
2023-01-06T05:33:45.131Z,2.20
2023-01-06T05:36:15.566Z,2.10
2023-01-06T05:38:43.318Z,2.20
2023-01-06T05:41:11.253Z,2.10
2023-01-06T05:43:38.353Z,2.10
2023-01-06T05:46:10.565Z,2.10
2023-01-06T05:48:38.400Z,2.00
2023-01-06T05:51:12.655Z,2.10
2023-01-06T05:53:43.106Z,2.10
2023-01-06T05:56:13.556Z,2.10
2023-01-06T05:58:41.051Z,2.00
2023-01-06T06:01:23.421Z,2.00
2023-01-06T06:03:51.419Z,2.00
2023-01-06T06:06:22.955Z,1.90
2023-01-06T06:08:50.144Z,1.90
2023-01-06T06:11:19.336Z,1.80
2023-01-06T06:13:48.612Z,1.90
2023-01-06T06:16:17.902Z,1.90
2023-01-06T06:18:48.077Z,1.90
2023-01-06T06:21:17.140Z,1.90
2023-01-06T06:23:44.265Z,1.80
2023-01-06T06:26:12.565Z,1.90
2023-01-06T06:28:40.516Z,1.80
2023-01-06T06:31:13.831Z,1.80
2023-01-06T06:33:41.624Z,1.70
2023-01-06T06:36:15.775Z,1.70
2023-01-06T06:38:45.287Z,1.70
2023-01-06T06:41:13.316Z,1.60
2023-01-06T06:43:40.851Z,1.60
2023-01-06T06:46:09.090Z,1.60
2023-01-06T06:48:36.540Z,1.60
2023-01-06T06:51:12.474Z,1.70
2023-01-06T06:53:39.944Z,1.70
2023-01-06T06:56:09.058Z,1.70
2023-01-06T06:58:37.432Z,1.70
2023-01-06T07:01:10.207Z,1.70
2023-01-06T07:03:37.792Z,1.70
2023-01-06T07:06:07.480Z,1.70
2023-01-06T07:08:35.529Z,1.70
2023-01-06T07:11:03.505Z,1.60
2023-01-06T07:13:30.629Z,1.50
2023-01-06T07:15:57.993Z,1.50
2023-01-06T07:18:24.971Z,1.50
2023-01-06T07:20:53.726Z,1.60
2023-01-06T07:23:21.508Z,1.60
2023-01-06T07:25:57.526Z,1.60
2023-01-06T07:28:25.737Z,1.70
2023-01-06T07:30:53.325Z,1.70
2023-01-06T07:33:21.116Z,1.70
2023-01-06T07:35:52.898Z,1.80
2023-01-06T07:38:19.901Z,1.70
2023-01-06T07:40:47.924Z,1.70
2023-01-06T07:43:14.948Z,1.70
2023-01-06T07:45:42.208Z,1.70
2023-01-06T07:48:10.125Z,1.70
2023-01-06T07:50:37.349Z,1.60
2023-01-06T07:53:04.512Z,1.60
2023-01-06T07:55:31.780Z,1.60
2023-01-06T07:57:58.992Z,1.60
2023-01-06T08:00:26.647Z,1.60
2023-01-06T08:02:54.299Z,1.70
2023-01-06T08:05:21.712Z,1.70
2023-01-06T08:07:48.950Z,1.70
2023-01-06T08:10:16.368Z,1.70
2023-01-06T08:12:43.382Z,1.70
2023-01-06T08:15:11.234Z,1.70
2023-01-06T08:17:38.229Z,1.80
2023-01-06T08:20:06.150Z,1.70
2023-01-06T08:22:33.107Z,1.80
2023-01-06T08:25:00.288Z,1.80
2023-01-06T08:27:28.018Z,1.90
2023-01-06T08:29:55.439Z,1.90
2023-01-06T08:32:22.777Z,2.00
2023-01-06T08:34:50.008Z,2.00
2023-01-06T08:37:16.991Z,1.90
2023-01-06T08:39:44.964Z,1.90
2023-01-06T08:42:13.002Z,1.80
2023-01-06T08:44:40.500Z,1.90
2023-01-06T08:47:07.486Z,2.00
2023-01-06T08:49:34.902Z,1.90
2023-01-06T08:52:01.843Z,1.80
2023-01-06T08:54:30.123Z,1.90
2023-01-06T08:56:57.428Z,1.90
2023-01-06T08:59:24.762Z,2.00
2023-01-06T09:01:52.296Z,2.00
2023-01-06T09:04:20.303Z,2.00
2023-01-06T09:06:47.560Z,2.10
2023-01-06T09:09:15.110Z,2.20
2023-01-06T09:11:43.555Z,2.30
2023-01-06T09:14:16.747Z,2.40
2023-01-06T09:16:43.844Z,2.40
2023-01-06T09:19:11.137Z,2.30
2023-01-06T09:21:38.429Z,2.30
2023-01-06T09:24:06.520Z,2.30
2023-01-06T09:26:34.249Z,2.30
2023-01-06T09:29:01.490Z,2.30
2023-01-06T09:31:28.513Z,2.30
2023-01-06T09:33:55.915Z,2.20
2023-01-06T09:36:22.877Z,2.10
2023-01-06T09:38:50.162Z,2.20
2023-01-06T09:41:38.367Z,2.20
2023-01-06T09:44:31.805Z,2.20
2023-01-06T09:47:00.671Z,2.20
2023-01-06T09:49:34.135Z,2.10
2023-01-06T09:52:06.047Z,2.10
2023-01-06T09:55:01.898Z,2.00
2023-01-06T09:57:39.527Z,2.20
2023-01-06T10:00:29.965Z,2.00
2023-01-06T10:02:58.161Z,1.90
2023-01-06T10:05:59.428Z,1.90
2023-01-06T10:08:46.975Z,1.90
2023-01-06T10:11:34.616Z,1.90
2023-01-06T10:14:10.793Z,2.10
2023-01-06T10:16:49.632Z,2.00
2023-01-06T10:19:38.141Z,1.80
2023-01-06T10:22:16.065Z,1.80
2023-01-06T10:25:01.551Z,1.90
2023-01-06T10:27:41.098Z,1.80
2023-01-06T10:30:43.806Z,1.90
2023-01-06T10:33:32.714Z,1.90
2023-01-06T10:36:00.733Z,1.80
2023-01-06T10:38:36.115Z,1.80
2023-01-06T10:41:23.359Z,1.90
2023-01-06T10:43:50.875Z,2.00
2023-01-06T10:46:18.096Z,2.10
2023-01-06T10:48:47.007Z,2.10
2023-01-06T10:51:35.214Z,2.10
2023-01-06T10:54:08.836Z,2.10
2023-01-06T10:56:37.813Z,2.30
2023-01-06T10:59:10.595Z,2.30
2023-01-06T11:01:58.174Z,2.30
2023-01-06T11:04:28.304Z,1.90
2023-01-06T11:07:02.957Z,1.80
2023-01-06T11:09:33.378Z,1.80
2023-01-06T11:12:10.285Z,1.90
2023-01-06T11:14:37.888Z,2.00
2023-01-06T11:17:09.587Z,2.20
2023-01-06T11:19:42.741Z,2.20
2023-01-06T11:25:20.285Z,1.90
2023-01-06T11:27:48.392Z,1.90
2023-01-06T11:30:26.652Z,1.80
2023-01-06T11:32:54.330Z,1.80
2023-01-06T11:35:26.364Z,1.70
2023-01-06T11:37:59.990Z,1.70
2023-01-06T11:40:32.143Z,1.70
2023-01-06T11:43:08.006Z,1.60
2023-01-06T11:45:53.392Z,1.70
2023-01-06T11:48:26.652Z,1.70
2023-01-06T11:50:59.994Z,1.70
2023-01-06T11:53:29.417Z,1.70
2023-01-06T11:56:05.810Z,1.70
2023-01-06T11:58:44.515Z,1.70
2023-01-06T12:01:51.238Z,1.80
2023-01-06T12:04:41.989Z,1.80
2023-01-06T12:07:34.171Z,1.80
2023-01-06T12:10:12.281Z,1.90
2023-01-06T12:12:39.617Z,1.90
2023-01-06T12:15:17.026Z,2.00
2023-01-06T12:17:51.156Z,2.10
2023-01-06T12:20:20.744Z,2.10
2023-01-06T12:23:05.709Z,2.00
2023-01-06T12:25:41.179Z,2.10
2023-01-06T12:28:22.006Z,2.20
2023-01-06T12:30:54.354Z,2.20
2023-01-06T12:34:00.330Z,2.30
2023-01-06T12:36:31.963Z,2.30
2023-01-06T12:39:04.908Z,2.30
2023-01-06T12:42:14.962Z,2.30
2023-01-06T12:44:58.386Z,2.40
2023-01-06T12:47:34.440Z,2.40
2023-01-06T12:50:18.066Z,2.40
2023-01-06T12:52:54.408Z,2.30
2023-01-06T12:55:39.690Z,2.20
2023-01-06T12:58:35.291Z,2.20
2023-01-06T13:01:15.479Z,2.20
2023-01-06T13:03:54.503Z,2.20
2023-01-06T13:06:30.506Z,2.20
2023-01-06T13:09:16.323Z,2.20
2023-01-06T13:12:07.945Z,2.10
2023-01-06T13:14:50.178Z,2.10
2023-01-06T13:17:38.758Z,2.10
2023-01-06T13:20:13.336Z,2.00
2023-01-06T13:22:56.048Z,2.10
2023-01-06T13:25:31.568Z,2.10
2023-01-06T13:27:58.782Z,2.10
2023-01-06T13:30:48.964Z,2.20
2023-01-06T13:33:31.825Z,2.20
2023-01-06T13:36:29.108Z,2.10
2023-01-06T13:39:44.663Z,2.20
2023-01-06T13:42:17.590Z,2.20
2023-01-06T13:44:46.589Z,2.20
2023-01-06T13:47:18.732Z,2.20
2023-01-06T13:49:46.277Z,2.30
2023-01-06T13:52:26.126Z,2.30
2023-01-06T13:54:53.326Z,2.40
2023-01-06T13:57:20.218Z,2.40
2023-01-06T14:00:11.097Z,2.30
2023-01-06T14:02:58.037Z,2.30
2023-01-06T14:05:25.292Z,2.30
2023-01-06T14:08:03.342Z,2.30
2023-01-06T14:10:37.504Z,2.30
2023-01-06T14:13:18.048Z,2.30
2023-01-06T14:16:12.675Z,2.20
2023-01-06T14:18:46.944Z,2.30
2023-01-06T14:21:14.130Z,2.20
2023-01-06T14:24:03.108Z,2.20
2023-01-06T14:27:03.647Z,2.10
2023-01-06T14:29:42.994Z,2.20
2023-01-06T14:32:17.030Z,2.10
2023-01-06T14:34:54.930Z,2.10
2023-01-06T14:37:29.979Z,2.10
2023-01-06T14:40:00.705Z,2.10
2023-01-06T14:42:44.421Z,2.10
2023-01-06T14:45:29.853Z,2.10
2023-01-06T14:48:01.968Z,2.10
2023-01-06T14:50:46.512Z,2.10
2023-01-06T14:53:33.378Z,2.10
2023-01-06T14:56:00.877Z,2.00
2023-01-06T14:58:30.559Z,2.00
2023-01-06T15:00:58.414Z,2.10
2023-01-06T15:03:28.221Z,2.10
2023-01-06T15:06:22.233Z,2.00
2023-01-06T15:08:50.130Z,2.10
2023-01-06T15:11:29.385Z,2.10
2023-01-06T15:13:57.262Z,2.10
2023-01-06T15:16:38.023Z,2.00
2023-01-06T15:19:13.471Z,1.90
2023-01-06T15:21:41.747Z,1.90
2023-01-06T15:24:23.492Z,1.80
2023-01-06T15:26:52.465Z,1.80
2023-01-06T15:29:25.333Z,1.80
2023-01-06T15:31:54.307Z,1.90
2023-01-06T15:34:34.260Z,1.80
2023-01-06T15:37:03.052Z,1.80
2023-01-06T15:39:32.667Z,1.80
2023-01-06T15:42:00.610Z,1.90
2023-01-06T15:44:28.044Z,1.90
2023-01-06T15:47:18.515Z,1.90
2023-01-06T15:49:53.455Z,1.90
2023-01-06T15:52:33.098Z,1.80
2023-01-06T15:55:03.770Z,1.70
2023-01-06T15:57:37.585Z,1.70
2023-01-06T16:00:26.579Z,1.60
2023-01-06T16:02:55.072Z,1.60
2023-01-06T16:05:43.582Z,1.60
2023-01-06T16:08:18.806Z,1.60
2023-01-06T16:10:46.754Z,1.60
2023-01-06T16:13:29.077Z,1.70
2023-01-06T16:16:25.183Z,1.60
2023-01-06T16:18:55.556Z,1.60
2023-01-06T16:21:30.107Z,1.60
2023-01-06T16:24:00.271Z,1.70
2023-01-06T16:26:31.057Z,1.70
2023-01-06T16:29:00.651Z,1.70
2023-01-06T16:31:32.984Z,1.80
2023-01-06T16:34:19.023Z,1.70
2023-01-06T16:36:47.062Z,1.80
2023-01-06T16:39:14.201Z,1.80
2023-01-06T16:42:00.117Z,1.80
2023-01-06T16:44:29.605Z,1.80
2023-01-06T16:46:58.104Z,1.70
2023-01-06T16:49:25.300Z,1.70
2023-01-06T16:51:54.436Z,1.60
2023-01-06T16:54:22.584Z,1.70
2023-01-06T16:56:52.147Z,1.60
2023-01-06T16:59:22.173Z,1.60
2023-01-06T17:01:49.786Z,1.60
2023-01-06T17:04:16.949Z,1.60
2023-01-06T17:06:45.631Z,1.60
2023-01-06T17:09:23.545Z,1.60
2023-01-06T17:11:52.845Z,1.60
2023-01-06T17:14:21.920Z,1.60
2023-01-06T17:16:50.710Z,1.60
2023-01-06T17:19:23.314Z,1.60
2023-01-06T17:21:54.770Z,1.60
2023-01-06T17:24:24.674Z,1.60
2023-01-06T17:26:56.920Z,1.60
2023-01-06T17:29:26.678Z,1.50
2023-01-06T17:31:57.099Z,1.40
2023-01-06T17:34:31.785Z,1.40
2023-01-06T17:37:11.043Z,1.30
2023-01-06T17:39:41.055Z,1.20
2023-01-06T17:42:08.332Z,1.30
2023-01-06T17:44:38.256Z,1.20
2023-01-06T17:47:25.709Z,1.20
2023-01-06T17:49:59.135Z,1.10
2023-01-06T17:52:38.087Z,1.10
2023-01-06T17:55:44.814Z,1.10
2023-01-06T17:58:18.524Z,1.10
2023-01-06T18:00:46.103Z,1.00
2023-01-06T18:03:22.315Z,1.00
2023-01-06T18:05:49.597Z,1.00
2023-01-06T18:08:17.608Z,1.00
2023-01-06T18:10:49.907Z,1.00
2023-01-06T18:13:17.109Z,1.00
2023-01-06T18:15:50.726Z,1.00
2023-01-06T18:18:37.138Z,1.00
2023-01-06T18:21:18.911Z,1.00
2023-01-06T18:23:49.383Z,1.00
2023-01-06T18:26:33.537Z,1.00
2023-01-06T18:29:06.277Z,1.00
2023-01-06T18:31:37.367Z,1.00
2023-01-06T18:34:35.652Z,0.90
2023-01-06T18:37:03.537Z,0.90
2023-01-06T18:39:43.351Z,0.90
2023-01-06T18:42:16.297Z,0.90
2023-01-06T18:44:43.694Z,1.00
2023-01-06T18:47:19.852Z,1.00
2023-01-06T18:49:47.790Z,1.00
2023-01-06T18:52:44.212Z,1.00
2023-01-06T18:55:23.363Z,1.00
2023-01-06T18:57:58.663Z,1.00
2023-01-06T19:00:46.235Z,1.00
2023-01-06T19:03:40.579Z,1.00
2023-01-06T19:06:16.658Z,1.00
2023-01-06T19:08:46.946Z,1.00
2023-01-06T19:11:17.542Z,1.00
2023-01-06T19:13:46.144Z,1.00
2023-01-06T19:16:34.345Z,1.00
2023-01-06T19:19:10.891Z,0.90
2023-01-06T19:21:38.755Z,1.00
2023-01-06T19:24:27.615Z,0.90
2023-01-06T19:27:00.203Z,1.00
2023-01-06T19:29:33.000Z,1.00
2023-01-06T19:32:05.501Z,1.00
2023-01-06T19:34:32.743Z,1.00
2023-01-06T19:37:00.132Z,1.00
2023-01-06T19:39:38.060Z,0.90
2023-01-06T19:42:08.817Z,0.90
2023-01-06T19:44:38.590Z,1.00
2023-01-06T19:47:27.898Z,1.00
2023-01-06T19:49:59.943Z,1.00
2023-01-06T19:52:36.025Z,1.00
2023-01-06T19:55:15.310Z,1.10
2023-01-06T19:58:43.163Z,1.00
2023-01-06T20:01:14.563Z,1.00
2023-01-06T20:03:44.763Z,1.00
2023-01-06T20:06:13.034Z,1.00
2023-01-06T20:08:43.216Z,1.00
2023-01-06T20:11:11.708Z,1.00
2023-01-06T20:13:39.096Z,1.00
2023-01-06T20:19:26.377Z,1.00
2023-01-06T20:21:53.868Z,1.00
2023-01-06T20:24:25.748Z,1.00
2023-01-06T20:26:54.400Z,1.00
2023-01-06T20:29:22.295Z,1.10
2023-01-06T20:31:51.123Z,1.00
2023-01-06T20:35:30.206Z,1.10
2023-01-06T20:41:20.028Z,1.10
2023-01-06T20:43:47.677Z,1.10
2023-01-06T20:46:15.175Z,1.00
2023-01-06T20:48:44.921Z,1.00
2023-01-06T20:51:15.301Z,1.00
2023-01-06T20:53:43.002Z,1.00
2023-01-06T20:56:10.512Z,1.10
2023-01-06T20:58:38.129Z,1.10
2023-01-06T21:01:05.424Z,1.10
2023-01-06T21:03:33.194Z,1.10
2023-01-06T21:06:00.571Z,1.00
2023-01-06T21:08:28.662Z,1.00
2023-01-06T21:10:56.583Z,0.90
2023-01-06T21:13:24.463Z,1.00
2023-01-06T21:15:51.626Z,1.00
2023-01-06T21:18:19.794Z,1.10
2023-01-06T21:20:49.720Z,1.10
2023-01-06T21:23:17.302Z,1.10
2023-01-06T21:25:45.020Z,1.10
2023-01-06T21:28:13.212Z,1.00
2023-01-06T21:30:40.618Z,1.00
2023-01-06T21:33:08.193Z,1.00
2023-01-06T21:35:45.182Z,1.10
2023-01-06T21:38:12.895Z,1.10
2023-01-06T21:40:41.169Z,1.10
2023-01-06T21:43:09.171Z,1.10
2023-01-06T21:45:42.795Z,1.20
2023-01-06T21:48:13.973Z,1.20
2023-01-06T21:50:46.015Z,1.20
2023-01-06T21:53:14.345Z,1.20
2023-01-06T21:55:41.838Z,1.20
2023-01-06T21:58:09.933Z,1.20
2023-01-06T22:00:39.936Z,1.20
2023-01-06T22:03:08.953Z,1.20
2023-01-06T22:05:38.244Z,1.20
2023-01-06T22:08:08.574Z,1.20
2023-01-06T22:10:42.759Z,1.20
2023-01-06T22:13:12.503Z,1.20
2023-01-06T22:15:43.322Z,1.30
2023-01-06T22:18:11.409Z,1.30
2023-01-06T22:20:39.664Z,1.30
2023-01-06T22:23:12.881Z,1.20
2023-01-06T22:25:43.103Z,1.10
2023-01-06T22:28:10.863Z,1.10
2023-01-06T22:30:38.723Z,1.10
2023-01-06T22:33:06.018Z,1.30
2023-01-06T22:35:33.655Z,1.50
2023-01-06T22:38:01.873Z,1.40
2023-01-06T22:40:30.109Z,1.30
2023-01-06T22:42:59.233Z,1.30
2023-01-06T22:45:26.802Z,1.30
2023-01-06T22:47:54.317Z,1.30
2023-01-06T22:50:22.977Z,1.30
2023-01-06T22:52:50.440Z,1.30
2023-01-06T22:55:18.018Z,1.30
2023-01-06T22:57:45.178Z,1.30
2023-01-06T23:00:16.798Z,1.30
2023-01-06T23:02:44.414Z,1.30
2023-01-06T23:05:12.581Z,1.30
2023-01-06T23:07:42.256Z,1.30
2023-01-06T23:10:12.488Z,1.30
2023-01-06T23:12:41.783Z,1.30
2023-01-06T23:15:10.068Z,1.30
2023-01-06T23:17:38.095Z,1.30
2023-01-06T23:20:06.339Z,1.30
2023-01-06T23:22:33.557Z,1.30
2023-01-06T23:25:01.373Z,1.30
2023-01-06T23:27:31.152Z,1.30
2023-01-06T23:30:00.582Z,1.40
2023-01-06T23:32:28.132Z,1.40
2023-01-06T23:34:55.952Z,1.40
2023-01-06T23:37:23.095Z,1.40
2023-01-06T23:39:50.857Z,1.40
2023-01-06T23:42:18.282Z,1.40
2023-01-06T23:44:46.071Z,1.40
2023-01-06T23:47:13.539Z,1.40
2023-01-06T23:49:41.640Z,1.50
2023-01-06T23:52:09.023Z,1.40
2023-01-06T23:54:36.767Z,1.30
2023-01-06T23:57:03.985Z,1.40
2023-01-06T23:59:32.061Z,1.40
